sensor_id;sensor_type;location;lat;lon;timestamp;P1;durP1;ratioP1;P2;durP2;ratioP2
11090;SDS011;5599;52.210;21.046;2022-12-07T00:02:01;22.23;;;17.33;;
11090;SDS011;5599;52.210;21.046;2022-12-07T00:04:30;21.97;;;17.67;;
11090;SDS011;5599;52.210;21.046;2022-12-07T00:06:59;21.63;;;18.37;;
11090;SDS011;5599;52.210;21.046;2022-12-07T00:09:28;24.63;;;18.37;;
11090;SDS011;5599;52.210;21.046;2022-12-07T00:11:59;25.10;;;20.23;;
11090;SDS011;5599;52.210;21.046;2022-12-07T00:14:28;23.77;;;19.73;;
11090;SDS011;5599;52.210;21.046;2022-12-07T00:16:58;24.57;;;21.00;;
11090;SDS011;5599;52.210;21.046;2022-12-07T00:19:28;26.23;;;20.47;;
11090;SDS011;5599;52.210;21.046;2022-12-07T00:21:57;28.67;;;22.70;;
11090;SDS011;5599;52.210;21.046;2022-12-07T00:24:26;25.67;;;21.63;;
11090;SDS011;5599;52.210;21.046;2022-12-07T00:26:55;27.47;;;22.10;;
11090;SDS011;5599;52.210;21.046;2022-12-07T00:29:24;30.47;;;23.00;;
11090;SDS011;5599;52.210;21.046;2022-12-07T00:31:53;29.83;;;22.33;;
11090;SDS011;5599;52.210;21.046;2022-12-07T00:34:24;28.70;;;21.77;;
11090;SDS011;5599;52.210;21.046;2022-12-07T00:36:53;29.20;;;21.83;;
11090;SDS011;5599;52.210;21.046;2022-12-07T00:39:22;27.30;;;20.93;;
11090;SDS011;5599;52.210;21.046;2022-12-07T00:41:51;30.10;;;22.47;;
11090;SDS011;5599;52.210;21.046;2022-12-07T00:44:20;30.50;;;24.20;;
11090;SDS011;5599;52.210;21.046;2022-12-07T00:46:49;34.17;;;25.10;;
11090;SDS011;5599;52.210;21.046;2022-12-07T00:49:18;34.40;;;26.73;;
11090;SDS011;5599;52.210;21.046;2022-12-07T00:51:49;36.07;;;26.70;;
11090;SDS011;5599;52.210;21.046;2022-12-07T00:54:18;38.53;;;26.97;;
11090;SDS011;5599;52.210;21.046;2022-12-07T00:56:47;37.33;;;26.37;;
11090;SDS011;5599;52.210;21.046;2022-12-07T00:59:16;37.50;;;27.83;;
11090;SDS011;5599;52.210;21.046;2022-12-07T01:01:45;37.60;;;27.27;;
11090;SDS011;5599;52.210;21.046;2022-12-07T01:04:14;35.07;;;28.13;;
11090;SDS011;5599;52.210;21.046;2022-12-07T01:06:43;36.80;;;26.80;;
11090;SDS011;5599;52.210;21.046;2022-12-07T01:09:13;34.33;;;26.27;;
11090;SDS011;5599;52.210;21.046;2022-12-07T01:11:43;32.97;;;26.23;;
11090;SDS011;5599;52.210;21.046;2022-12-07T01:14:12;33.53;;;26.00;;
11090;SDS011;5599;52.210;21.046;2022-12-07T01:16:41;38.43;;;27.13;;
11090;SDS011;5599;52.210;21.046;2022-12-07T01:19:10;32.17;;;26.23;;
11090;SDS011;5599;52.210;21.046;2022-12-07T01:21:39;33.33;;;25.43;;
11090;SDS011;5599;52.210;21.046;2022-12-07T01:24:09;38.53;;;27.67;;
11090;SDS011;5599;52.210;21.046;2022-12-07T01:26:40;36.07;;;26.13;;
11090;SDS011;5599;52.210;21.046;2022-12-07T01:29:09;34.93;;;26.17;;
11090;SDS011;5599;52.210;21.046;2022-12-07T01:31:38;31.33;;;23.90;;
11090;SDS011;5599;52.210;21.046;2022-12-07T01:34:07;31.77;;;24.50;;
11090;SDS011;5599;52.210;21.046;2022-12-07T01:36:37;35.50;;;24.47;;
11090;SDS011;5599;52.210;21.046;2022-12-07T01:39:06;31.77;;;23.23;;
11090;SDS011;5599;52.210;21.046;2022-12-07T01:41:37;30.13;;;24.13;;
11090;SDS011;5599;52.210;21.046;2022-12-07T01:44:13;32.77;;;23.00;;
11090;SDS011;5599;52.210;21.046;2022-12-07T01:46:49;28.07;;;21.57;;
11090;SDS011;5599;52.210;21.046;2022-12-07T01:49:21;26.90;;;20.20;;
11090;SDS011;5599;52.210;21.046;2022-12-07T01:51:56;29.33;;;21.43;;
11090;SDS011;5599;52.210;21.046;2022-12-07T01:54:30;24.77;;;20.17;;
11090;SDS011;5599;52.210;21.046;2022-12-07T01:57:00;25.70;;;19.23;;
11090;SDS011;5599;52.210;21.046;2022-12-07T01:59:32;23.87;;;18.20;;
11090;SDS011;5599;52.210;21.046;2022-12-07T02:02:04;19.63;;;16.97;;
11090;SDS011;5599;52.210;21.046;2022-12-07T02:04:38;20.90;;;16.47;;
11090;SDS011;5599;52.210;21.046;2022-12-07T02:07:07;20.07;;;15.10;;
11090;SDS011;5599;52.210;21.046;2022-12-07T02:09:37;16.53;;;13.30;;
11090;SDS011;5599;52.210;21.046;2022-12-07T02:12:06;16.60;;;13.70;;
11090;SDS011;5599;52.210;21.046;2022-12-07T02:14:37;16.87;;;13.00;;
11090;SDS011;5599;52.210;21.046;2022-12-07T02:17:08;14.83;;;12.53;;
11090;SDS011;5599;52.210;21.046;2022-12-07T02:19:57;13.73;;;11.67;;
11090;SDS011;5599;52.210;21.046;2022-12-07T02:22:44;13.77;;;11.63;;
11090;SDS011;5599;52.210;21.046;2022-12-07T02:25:39;12.43;;;11.07;;
11090;SDS011;5599;52.210;21.046;2022-12-07T02:28:18;13.30;;;10.33;;
11090;SDS011;5599;52.210;21.046;2022-12-07T02:30:56;13.30;;;11.00;;
11090;SDS011;5599;52.210;21.046;2022-12-07T02:33:33;12.50;;;10.37;;
11090;SDS011;5599;52.210;21.046;2022-12-07T02:36:06;12.30;;;10.10;;
11090;SDS011;5599;52.210;21.046;2022-12-07T02:38:39;11.67;;;10.47;;
11090;SDS011;5599;52.210;21.046;2022-12-07T02:41:15;11.07;;;9.77;;
11090;SDS011;5599;52.210;21.046;2022-12-07T02:43:49;13.20;;;10.43;;
11090;SDS011;5599;52.210;21.046;2022-12-07T02:46:23;12.03;;;10.40;;
11090;SDS011;5599;52.210;21.046;2022-12-07T02:48:55;11.47;;;9.57;;
11090;SDS011;5599;52.210;21.046;2022-12-07T02:51:29;11.10;;;9.90;;
11090;SDS011;5599;52.210;21.046;2022-12-07T02:53:59;13.90;;;10.67;;
11090;SDS011;5599;52.210;21.046;2022-12-07T02:56:30;11.33;;;10.20;;
11090;SDS011;5599;52.210;21.046;2022-12-07T02:59:09;13.00;;;10.07;;
11090;SDS011;5599;52.210;21.046;2022-12-07T03:01:49;11.33;;;9.43;;
11090;SDS011;5599;52.210;21.046;2022-12-07T03:04:29;11.33;;;9.43;;
11090;SDS011;5599;52.210;21.046;2022-12-07T03:07:10;11.17;;;9.87;;
11090;SDS011;5599;52.210;21.046;2022-12-07T03:09:47;10.17;;;9.07;;
11090;SDS011;5599;52.210;21.046;2022-12-07T03:12:24;11.33;;;9.57;;
11090;SDS011;5599;52.210;21.046;2022-12-07T03:14:59;10.67;;;9.57;;
11090;SDS011;5599;52.210;21.046;2022-12-07T03:17:33;10.53;;;9.50;;
11090;SDS011;5599;52.210;21.046;2022-12-07T03:20:06;13.47;;;10.63;;
11090;SDS011;5599;52.210;21.046;2022-12-07T03:22:37;11.77;;;10.53;;
11090;SDS011;5599;52.210;21.046;2022-12-07T03:25:10;11.63;;;9.40;;
11090;SDS011;5599;52.210;21.046;2022-12-07T03:27:43;10.83;;;9.37;;
11090;SDS011;5599;52.210;21.046;2022-12-07T03:30:19;11.20;;;9.47;;
11090;SDS011;5599;52.210;21.046;2022-12-07T03:32:52;11.13;;;9.10;;
11090;SDS011;5599;52.210;21.046;2022-12-07T03:35:27;10.23;;;8.40;;
11090;SDS011;5599;52.210;21.046;2022-12-07T03:38:00;11.53;;;9.97;;
11090;SDS011;5599;52.210;21.046;2022-12-07T03:40:47;9.70;;;8.80;;
11090;SDS011;5599;52.210;21.046;2022-12-07T03:43:18;9.13;;;8.23;;
11090;SDS011;5599;52.210;21.046;2022-12-07T03:45:51;9.50;;;8.50;;
11090;SDS011;5599;52.210;21.046;2022-12-07T03:48:31;9.20;;;8.30;;
11090;SDS011;5599;52.210;21.046;2022-12-07T03:51:06;9.47;;;8.47;;
11090;SDS011;5599;52.210;21.046;2022-12-07T03:53:43;9.13;;;8.10;;
11090;SDS011;5599;52.210;21.046;2022-12-07T03:56:16;7.07;;;6.37;;
11090;SDS011;5599;52.210;21.046;2022-12-07T03:58:46;9.13;;;7.60;;
11090;SDS011;5599;52.210;21.046;2022-12-07T04:01:17;6.80;;;6.10;;
11090;SDS011;5599;52.210;21.046;2022-12-07T04:03:48;7.37;;;6.53;;
11090;SDS011;5599;52.210;21.046;2022-12-07T04:06:17;7.00;;;6.10;;
11090;SDS011;5599;52.210;21.046;2022-12-07T04:08:48;6.90;;;6.20;;
11090;SDS011;5599;52.210;21.046;2022-12-07T04:11:17;8.80;;;7.20;;
11090;SDS011;5599;52.210;21.046;2022-12-07T04:13:46;7.80;;;6.90;;
11090;SDS011;5599;52.210;21.046;2022-12-07T04:16:32;7.40;;;6.67;;
11090;SDS011;5599;52.210;21.046;2022-12-07T04:19:11;8.10;;;7.30;;
11090;SDS011;5599;52.210;21.046;2022-12-07T04:21:40;7.90;;;7.13;;
11090;SDS011;5599;52.210;21.046;2022-12-07T04:24:09;8.70;;;7.90;;
11090;SDS011;5599;52.210;21.046;2022-12-07T04:26:40;8.33;;;7.50;;
11090;SDS011;5599;52.210;21.046;2022-12-07T04:29:09;8.30;;;7.40;;
11090;SDS011;5599;52.210;21.046;2022-12-07T04:31:38;7.23;;;6.57;;
11090;SDS011;5599;52.210;21.046;2022-12-07T04:34:08;7.50;;;6.70;;
11090;SDS011;5599;52.210;21.046;2022-12-07T04:36:39;7.43;;;6.60;;
11090;SDS011;5599;52.210;21.046;2022-12-07T04:39:18;6.90;;;6.17;;
11090;SDS011;5599;52.210;21.046;2022-12-07T04:41:49;7.00;;;5.73;;
11090;SDS011;5599;52.210;21.046;2022-12-07T04:44:18;7.70;;;6.17;;
11090;SDS011;5599;52.210;21.046;2022-12-07T04:46:49;7.93;;;6.70;;
11090;SDS011;5599;52.210;21.046;2022-12-07T04:49:18;7.07;;;6.37;;
11090;SDS011;5599;52.210;21.046;2022-12-07T04:51:49;6.90;;;6.23;;
11090;SDS011;5599;52.210;21.046;2022-12-07T04:54:18;7.00;;;6.23;;
11090;SDS011;5599;52.210;21.046;2022-12-07T04:56:47;6.70;;;6.00;;
11090;SDS011;5599;52.210;21.046;2022-12-07T04:59:17;6.80;;;5.50;;
11090;SDS011;5599;52.210;21.046;2022-12-07T05:01:46;7.00;;;5.97;;
11090;SDS011;5599;52.210;21.046;2022-12-07T05:04:15;6.97;;;6.27;;
11090;SDS011;5599;52.210;21.046;2022-12-07T05:06:44;7.17;;;6.00;;
11090;SDS011;5599;52.210;21.046;2022-12-07T05:09:15;7.77;;;6.93;;
11090;SDS011;5599;52.210;21.046;2022-12-07T05:11:44;6.33;;;5.73;;
11090;SDS011;5599;52.210;21.046;2022-12-07T05:14:14;7.03;;;6.33;;
11090;SDS011;5599;52.210;21.046;2022-12-07T05:16:44;7.63;;;6.67;;
11090;SDS011;5599;52.210;21.046;2022-12-07T05:19:16;6.77;;;6.07;;
11090;SDS011;5599;52.210;21.046;2022-12-07T05:21:45;7.73;;;6.50;;
11090;SDS011;5599;52.210;21.046;2022-12-07T05:24:16;7.00;;;6.30;;
11090;SDS011;5599;52.210;21.046;2022-12-07T05:26:45;6.33;;;5.70;;
11090;SDS011;5599;52.210;21.046;2022-12-07T05:29:15;7.57;;;6.80;;
11090;SDS011;5599;52.210;21.046;2022-12-07T05:31:45;8.60;;;6.57;;
11090;SDS011;5599;52.210;21.046;2022-12-07T05:34:14;6.70;;;6.03;;
11090;SDS011;5599;52.210;21.046;2022-12-07T05:36:43;7.30;;;6.60;;
11090;SDS011;5599;52.210;21.046;2022-12-07T05:39:12;6.87;;;6.10;;
11090;SDS011;5599;52.210;21.046;2022-12-07T05:41:42;8.30;;;6.63;;
11090;SDS011;5599;52.210;21.046;2022-12-07T05:44:29;7.60;;;6.80;;
11090;SDS011;5599;52.210;21.046;2022-12-07T05:46:58;8.30;;;6.87;;
11090;SDS011;5599;52.210;21.046;2022-12-07T05:49:27;6.67;;;5.97;;
11090;SDS011;5599;52.210;21.046;2022-12-07T05:51:56;7.27;;;6.27;;
11090;SDS011;5599;52.210;21.046;2022-12-07T05:54:25;8.47;;;6.80;;
11090;SDS011;5599;52.210;21.046;2022-12-07T05:56:55;7.10;;;6.37;;
11090;SDS011;5599;52.210;21.046;2022-12-07T05:59:25;7.50;;;6.63;;
11090;SDS011;5599;52.210;21.046;2022-12-07T06:01:55;8.50;;;6.93;;
11090;SDS011;5599;52.210;21.046;2022-12-07T06:04:26;8.97;;;7.80;;
11090;SDS011;5599;52.210;21.046;2022-12-07T06:06:56;8.43;;;7.60;;
11090;SDS011;5599;52.210;21.046;2022-12-07T06:09:26;7.70;;;6.90;;
11090;SDS011;5599;52.210;21.046;2022-12-07T06:11:57;10.53;;;7.67;;
11090;SDS011;5599;52.210;21.046;2022-12-07T06:14:44;8.33;;;7.43;;
11090;SDS011;5599;52.210;21.046;2022-12-07T06:17:13;8.47;;;6.83;;
11090;SDS011;5599;52.210;21.046;2022-12-07T06:19:43;8.23;;;7.43;;
11090;SDS011;5599;52.210;21.046;2022-12-07T06:22:12;8.43;;;7.63;;
11090;SDS011;5599;52.210;21.046;2022-12-07T06:24:43;9.70;;;7.37;;
11090;SDS011;5599;52.210;21.046;2022-12-07T06:27:13;8.80;;;7.87;;
11090;SDS011;5599;52.210;21.046;2022-12-07T06:29:42;8.93;;;8.03;;
11090;SDS011;5599;52.210;21.046;2022-12-07T06:32:11;8.27;;;7.33;;
11090;SDS011;5599;52.210;21.046;2022-12-07T06:34:40;7.90;;;7.10;;
11090;SDS011;5599;52.210;21.046;2022-12-07T06:37:10;8.97;;;8.07;;
11090;SDS011;5599;52.210;21.046;2022-12-07T06:39:39;8.93;;;8.00;;
11090;SDS011;5599;52.210;21.046;2022-12-07T06:42:08;8.67;;;7.73;;
11090;SDS011;5599;52.210;21.046;2022-12-07T06:44:38;8.93;;;8.03;;
11090;SDS011;5599;52.210;21.046;2022-12-07T06:47:07;8.23;;;7.43;;
11090;SDS011;5599;52.210;21.046;2022-12-07T06:49:58;9.23;;;8.20;;
11090;SDS011;5599;52.210;21.046;2022-12-07T06:52:27;9.40;;;8.10;;
11090;SDS011;5599;52.210;21.046;2022-12-07T06:54:56;8.70;;;7.73;;
11090;SDS011;5599;52.210;21.046;2022-12-07T06:57:26;8.40;;;7.53;;
11090;SDS011;5599;52.210;21.046;2022-12-07T06:59:56;8.67;;;7.77;;
11090;SDS011;5599;52.210;21.046;2022-12-07T07:02:26;8.67;;;7.77;;
11090;SDS011;5599;52.210;21.046;2022-12-07T07:04:55;8.83;;;7.93;;
11090;SDS011;5599;52.210;21.046;2022-12-07T07:07:24;9.20;;;7.73;;
11090;SDS011;5599;52.210;21.046;2022-12-07T07:09:54;9.80;;;8.80;;
11090;SDS011;5599;52.210;21.046;2022-12-07T07:12:23;8.97;;;7.93;;
11090;SDS011;5599;52.210;21.046;2022-12-07T07:14:51;9.67;;;8.23;;
11090;SDS011;5599;52.210;21.046;2022-12-07T07:17:22;8.80;;;7.77;;
11090;SDS011;5599;52.210;21.046;2022-12-07T07:19:51;11.30;;;8.37;;
11090;SDS011;5599;52.210;21.046;2022-12-07T07:22:20;9.47;;;8.50;;
11090;SDS011;5599;52.210;21.046;2022-12-07T07:24:49;9.50;;;8.30;;
11090;SDS011;5599;52.210;21.046;2022-12-07T07:27:18;10.43;;;8.90;;
11090;SDS011;5599;52.210;21.046;2022-12-07T07:29:47;11.50;;;7.83;;
11090;SDS011;5599;52.210;21.046;2022-12-07T07:32:16;10.97;;;8.30;;
11090;SDS011;5599;52.210;21.046;2022-12-07T07:34:47;11.17;;;8.40;;
11090;SDS011;5599;52.210;21.046;2022-12-07T07:37:16;9.00;;;8.03;;
11090;SDS011;5599;52.210;21.046;2022-12-07T07:39:48;9.63;;;7.57;;
11090;SDS011;5599;52.210;21.046;2022-12-07T07:42:17;9.00;;;7.47;;
11090;SDS011;5599;52.210;21.046;2022-12-07T07:44:46;9.27;;;7.47;;
11090;SDS011;5599;52.210;21.046;2022-12-07T07:47:15;10.83;;;8.83;;
11090;SDS011;5599;52.210;21.046;2022-12-07T07:49:44;9.03;;;7.97;;
11090;SDS011;5599;52.210;21.046;2022-12-07T07:52:15;10.77;;;7.97;;
11090;SDS011;5599;52.210;21.046;2022-12-07T07:54:44;9.73;;;8.37;;
11090;SDS011;5599;52.210;21.046;2022-12-07T07:57:13;10.37;;;8.87;;
11090;SDS011;5599;52.210;21.046;2022-12-07T07:59:44;8.87;;;7.97;;
11090;SDS011;5599;52.210;21.046;2022-12-07T08:02:13;9.07;;;8.10;;
11090;SDS011;5599;52.210;21.046;2022-12-07T08:04:43;9.07;;;8.13;;
11090;SDS011;5599;52.210;21.046;2022-12-07T08:07:13;12.40;;;8.53;;
11090;SDS011;5599;52.210;21.046;2022-12-07T08:09:44;9.37;;;8.40;;
11090;SDS011;5599;52.210;21.046;2022-12-07T08:12:13;9.50;;;7.47;;
11090;SDS011;5599;52.210;21.046;2022-12-07T08:14:42;13.93;;;9.23;;
11090;SDS011;5599;52.210;21.046;2022-12-07T08:17:11;10.10;;;8.20;;
11090;SDS011;5599;52.210;21.046;2022-12-07T08:19:41;10.37;;;8.37;;
11090;SDS011;5599;52.210;21.046;2022-12-07T08:22:10;9.97;;;8.40;;
11090;SDS011;5599;52.210;21.046;2022-12-07T08:24:40;9.47;;;8.47;;
11090;SDS011;5599;52.210;21.046;2022-12-07T08:27:09;11.03;;;9.30;;
11090;SDS011;5599;52.210;21.046;2022-12-07T08:29:38;12.90;;;10.20;;
11090;SDS011;5599;52.210;21.046;2022-12-07T08:32:07;12.37;;;10.03;;
11090;SDS011;5599;52.210;21.046;2022-12-07T08:34:36;12.97;;;10.80;;
11090;SDS011;5599;52.210;21.046;2022-12-07T08:37:05;14.20;;;10.70;;
11090;SDS011;5599;52.210;21.046;2022-12-07T08:39:35;11.97;;;10.03;;
11090;SDS011;5599;52.210;21.046;2022-12-07T08:42:05;14.63;;;12.00;;
11090;SDS011;5599;52.210;21.046;2022-12-07T08:44:34;13.83;;;11.67;;
11090;SDS011;5599;52.210;21.046;2022-12-07T08:47:04;17.47;;;12.10;;
11090;SDS011;5599;52.210;21.046;2022-12-07T08:49:35;16.03;;;11.40;;
11090;SDS011;5599;52.210;21.046;2022-12-07T08:52:07;15.00;;;12.83;;
11090;SDS011;5599;52.210;21.046;2022-12-07T08:54:36;18.40;;;14.03;;
11090;SDS011;5599;52.210;21.046;2022-12-07T08:57:09;19.93;;;14.30;;
11090;SDS011;5599;52.210;21.046;2022-12-07T08:59:39;17.90;;;14.60;;
11090;SDS011;5599;52.210;21.046;2022-12-07T09:02:08;20.70;;;14.67;;
11090;SDS011;5599;52.210;21.046;2022-12-07T09:04:37;19.30;;;13.80;;
11090;SDS011;5599;52.210;21.046;2022-12-07T09:07:06;15.60;;;12.57;;
11090;SDS011;5599;52.210;21.046;2022-12-07T09:09:36;18.17;;;13.63;;
11090;SDS011;5599;52.210;21.046;2022-12-07T09:12:05;15.87;;;12.63;;
11090;SDS011;5599;52.210;21.046;2022-12-07T09:14:35;15.53;;;13.07;;
11090;SDS011;5599;52.210;21.046;2022-12-07T09:17:05;15.97;;;12.83;;
11090;SDS011;5599;52.210;21.046;2022-12-07T09:19:35;16.13;;;12.73;;
11090;SDS011;5599;52.210;21.046;2022-12-07T09:22:04;20.13;;;12.63;;
11090;SDS011;5599;52.210;21.046;2022-12-07T09:24:34;16.00;;;12.67;;
11090;SDS011;5599;52.210;21.046;2022-12-07T09:27:03;16.60;;;13.00;;
11090;SDS011;5599;52.210;21.046;2022-12-07T09:29:32;14.70;;;12.83;;
11090;SDS011;5599;52.210;21.046;2022-12-07T09:32:03;14.53;;;11.80;;
11090;SDS011;5599;52.210;21.046;2022-12-07T09:34:37;17.03;;;12.60;;
11090;SDS011;5599;52.210;21.046;2022-12-07T09:37:07;16.40;;;12.53;;
11090;SDS011;5599;52.210;21.046;2022-12-07T09:39:37;16.20;;;12.60;;
11090;SDS011;5599;52.210;21.046;2022-12-07T09:42:17;16.73;;;12.90;;
11090;SDS011;5599;52.210;21.046;2022-12-07T09:44:54;15.03;;;12.20;;
11090;SDS011;5599;52.210;21.046;2022-12-07T09:47:26;17.93;;;13.60;;
11090;SDS011;5599;52.210;21.046;2022-12-07T09:49:59;15.37;;;12.33;;
11090;SDS011;5599;52.210;21.046;2022-12-07T09:52:32;17.60;;;13.40;;
11090;SDS011;5599;52.210;21.046;2022-12-07T09:55:09;16.47;;;12.67;;
11090;SDS011;5599;52.210;21.046;2022-12-07T09:57:40;19.63;;;12.90;;
11090;SDS011;5599;52.210;21.046;2022-12-07T10:00:13;16.73;;;12.63;;
11090;SDS011;5599;52.210;21.046;2022-12-07T10:02:46;19.73;;;12.87;;
11090;SDS011;5599;52.210;21.046;2022-12-07T10:05:18;14.20;;;12.13;;
11090;SDS011;5599;52.210;21.046;2022-12-07T10:07:52;17.50;;;12.83;;
11090;SDS011;5599;52.210;21.046;2022-12-07T10:10:23;17.17;;;13.23;;
11090;SDS011;5599;52.210;21.046;2022-12-07T10:12:55;17.07;;;12.30;;
11090;SDS011;5599;52.210;21.046;2022-12-07T10:15:43;17.23;;;13.50;;
11090;SDS011;5599;52.210;21.046;2022-12-07T10:18:20;17.37;;;12.93;;
11090;SDS011;5599;52.210;21.046;2022-12-07T10:21:02;15.90;;;12.10;;
11090;SDS011;5599;52.210;21.046;2022-12-07T10:23:34;15.33;;;11.77;;
11090;SDS011;5599;52.210;21.046;2022-12-07T10:28:49;14.20;;;12.03;;
11090;SDS011;5599;52.210;21.046;2022-12-07T10:31:19;17.20;;;12.30;;
11090;SDS011;5599;52.210;21.046;2022-12-07T10:33:52;16.20;;;11.93;;
11090;SDS011;5599;52.210;21.046;2022-12-07T10:36:24;13.80;;;11.20;;
11090;SDS011;5599;52.210;21.046;2022-12-07T10:38:58;15.57;;;11.43;;
11090;SDS011;5599;52.210;21.046;2022-12-07T10:41:30;14.10;;;10.40;;
11090;SDS011;5599;52.210;21.046;2022-12-07T10:43:59;14.23;;;11.13;;
11090;SDS011;5599;52.210;21.046;2022-12-07T10:46:37;12.83;;;10.67;;
11090;SDS011;5599;52.210;21.046;2022-12-07T10:52:28;14.50;;;11.07;;
11090;SDS011;5599;52.210;21.046;2022-12-07T10:55:16;14.57;;;11.73;;
11090;SDS011;5599;52.210;21.046;2022-12-07T10:58:00;17.13;;;10.13;;
11090;SDS011;5599;52.210;21.046;2022-12-07T11:00:45;12.73;;;11.00;;
11090;SDS011;5599;52.210;21.046;2022-12-07T11:03:29;12.20;;;10.90;;
11090;SDS011;5599;52.210;21.046;2022-12-07T11:06:16;12.77;;;10.67;;
11090;SDS011;5599;52.210;21.046;2022-12-07T11:08:59;12.83;;;10.73;;
11090;SDS011;5599;52.210;21.046;2022-12-07T11:11:38;12.00;;;10.70;;
11090;SDS011;5599;52.210;21.046;2022-12-07T11:14:16;12.70;;;10.67;;
11090;SDS011;5599;52.210;21.046;2022-12-07T11:16:52;12.57;;;10.73;;
11090;SDS011;5599;52.210;21.046;2022-12-07T11:19:32;12.13;;;10.90;;
11090;SDS011;5599;52.210;21.046;2022-12-07T11:22:23;12.43;;;10.60;;
11090;SDS011;5599;52.210;21.046;2022-12-07T11:25:00;12.87;;;11.23;;
11090;SDS011;5599;52.210;21.046;2022-12-07T11:27:44;13.47;;;11.20;;
11090;SDS011;5599;52.210;21.046;2022-12-07T11:30:23;13.07;;;11.00;;
11090;SDS011;5599;52.210;21.046;2022-12-07T11:33:00;11.90;;;10.70;;
11090;SDS011;5599;52.210;21.046;2022-12-07T11:35:41;11.83;;;10.63;;
11090;SDS011;5599;52.210;21.046;2022-12-07T11:38:23;12.63;;;11.40;;
11090;SDS011;5599;52.210;21.046;2022-12-07T11:41:00;12.50;;;10.73;;
11090;SDS011;5599;52.210;21.046;2022-12-07T11:43:44;13.17;;;11.17;;
11090;SDS011;5599;52.210;21.046;2022-12-07T11:46:24;12.80;;;11.50;;
11090;SDS011;5599;52.210;21.046;2022-12-07T11:48:58;12.10;;;10.83;;
11090;SDS011;5599;52.210;21.046;2022-12-07T11:51:33;11.90;;;10.70;;
11090;SDS011;5599;52.210;21.046;2022-12-07T11:54:10;11.63;;;10.47;;
11090;SDS011;5599;52.210;21.046;2022-12-07T11:56:42;12.43;;;10.43;;
11090;SDS011;5599;52.210;21.046;2022-12-07T11:59:16;11.73;;;10.53;;
11090;SDS011;5599;52.210;21.046;2022-12-07T12:01:52;11.23;;;10.13;;
11090;SDS011;5599;52.210;21.046;2022-12-07T12:04:34;13.37;;;10.37;;
11090;SDS011;5599;52.210;21.046;2022-12-07T12:07:16;12.03;;;10.60;;
11090;SDS011;5599;52.210;21.046;2022-12-07T12:10:15;12.30;;;11.00;;
11090;SDS011;5599;52.210;21.046;2022-12-07T12:12:55;11.37;;;10.27;;
11090;SDS011;5599;52.210;21.046;2022-12-07T12:16:06;11.70;;;10.50;;
11090;SDS011;5599;52.210;21.046;2022-12-07T12:18:53;12.00;;;10.70;;
11090;SDS011;5599;52.210;21.046;2022-12-07T12:21:32;11.87;;;9.87;;
11090;SDS011;5599;52.210;21.046;2022-12-07T12:24:02;12.33;;;10.30;;
11090;SDS011;5599;52.210;21.046;2022-12-07T12:26:40;13.17;;;11.77;;
11090;SDS011;5599;52.210;21.046;2022-12-07T12:29:20;12.37;;;10.83;;
11090;SDS011;5599;52.210;21.046;2022-12-07T12:32:05;12.90;;;10.63;;
11090;SDS011;5599;52.210;21.046;2022-12-07T12:34:40;11.57;;;10.37;;
11090;SDS011;5599;52.210;21.046;2022-12-07T12:37:38;12.47;;;11.13;;
11090;SDS011;5599;52.210;21.046;2022-12-07T12:46:39;12.20;;;10.90;;
11090;SDS011;5599;52.210;21.046;2022-12-07T12:58:29;11.30;;;10.10;;
11090;SDS011;5599;52.210;21.046;2022-12-07T13:10:29;10.23;;;9.13;;
11090;SDS011;5599;52.210;21.046;2022-12-07T13:22:35;11.07;;;9.20;;
11090;SDS011;5599;52.210;21.046;2022-12-07T13:25:18;10.33;;;9.33;;
11090;SDS011;5599;52.210;21.046;2022-12-07T13:28:00;11.17;;;9.47;;
11090;SDS011;5599;52.210;21.046;2022-12-07T13:30:40;10.30;;;9.30;;
11090;SDS011;5599;52.210;21.046;2022-12-07T13:33:14;10.50;;;9.43;;
11090;SDS011;5599;52.210;21.046;2022-12-07T13:35:46;10.60;;;9.50;;
11090;SDS011;5599;52.210;21.046;2022-12-07T13:38:19;11.13;;;10.03;;
11090;SDS011;5599;52.210;21.046;2022-12-07T13:40:59;10.20;;;9.23;;
11090;SDS011;5599;52.210;21.046;2022-12-07T13:43:29;10.13;;;9.07;;
11090;SDS011;5599;52.210;21.046;2022-12-07T13:45:59;10.67;;;9.57;;
11090;SDS011;5599;52.210;21.046;2022-12-07T13:48:30;10.80;;;9.80;;
11090;SDS011;5599;52.210;21.046;2022-12-07T13:51:02;11.00;;;9.73;;
11090;SDS011;5599;52.210;21.046;2022-12-07T13:53:34;12.13;;;10.77;;
11090;SDS011;5599;52.210;21.046;2022-12-07T13:56:15;12.23;;;10.07;;
11090;SDS011;5599;52.210;21.046;2022-12-07T13:58:45;10.83;;;9.73;;
11090;SDS011;5599;52.210;21.046;2022-12-07T14:01:14;11.23;;;9.60;;
11090;SDS011;5599;52.210;21.046;2022-12-07T14:03:45;10.93;;;9.83;;
11090;SDS011;5599;52.210;21.046;2022-12-07T14:06:19;10.83;;;9.80;;
11090;SDS011;5599;52.210;21.046;2022-12-07T14:09:08;10.80;;;9.77;;
11090;SDS011;5599;52.210;21.046;2022-12-07T14:11:45;10.33;;;9.33;;
11090;SDS011;5599;52.210;21.046;2022-12-07T14:14:17;11.10;;;9.90;;
11090;SDS011;5599;52.210;21.046;2022-12-07T14:16:57;10.90;;;9.70;;
11090;SDS011;5599;52.210;21.046;2022-12-07T14:19:45;10.90;;;9.60;;
11090;SDS011;5599;52.210;21.046;2022-12-07T14:22:20;10.70;;;9.70;;
11090;SDS011;5599;52.210;21.046;2022-12-07T14:24:59;10.20;;;9.23;;
11090;SDS011;5599;52.210;21.046;2022-12-07T14:27:31;11.90;;;10.70;;
11090;SDS011;5599;52.210;21.046;2022-12-07T14:30:03;11.20;;;10.03;;
11090;SDS011;5599;52.210;21.046;2022-12-07T14:32:34;14.90;;;11.20;;
11090;SDS011;5599;52.210;21.046;2022-12-07T14:35:08;10.73;;;9.63;;
11090;SDS011;5599;52.210;21.046;2022-12-07T14:37:40;12.53;;;11.17;;
11090;SDS011;5599;52.210;21.046;2022-12-07T14:40:13;11.33;;;10.23;;
11090;SDS011;5599;52.210;21.046;2022-12-07T14:42:44;12.23;;;10.93;;
11090;SDS011;5599;52.210;21.046;2022-12-07T14:45:15;12.57;;;11.27;;
11090;SDS011;5599;52.210;21.046;2022-12-07T14:47:46;12.13;;;10.30;;
11090;SDS011;5599;52.210;21.046;2022-12-07T14:50:36;12.77;;;11.57;;
11090;SDS011;5599;52.210;21.046;2022-12-07T14:53:30;11.77;;;10.57;;
11090;SDS011;5599;52.210;21.046;2022-12-07T14:56:05;12.20;;;10.80;;
11090;SDS011;5599;52.210;21.046;2022-12-07T14:58:35;12.47;;;11.27;;
11090;SDS011;5599;52.210;21.046;2022-12-07T15:01:04;12.97;;;11.67;;
11090;SDS011;5599;52.210;21.046;2022-12-07T15:03:34;12.97;;;11.67;;
11090;SDS011;5599;52.210;21.046;2022-12-07T15:06:05;14.70;;;12.23;;
11090;SDS011;5599;52.210;21.046;2022-12-07T15:08:35;13.87;;;12.37;;
11090;SDS011;5599;52.210;21.046;2022-12-07T15:11:05;13.30;;;12.03;;
11090;SDS011;5599;52.210;21.046;2022-12-07T15:13:37;14.93;;;11.07;;
11090;SDS011;5599;52.210;21.046;2022-12-07T15:16:24;14.10;;;12.63;;
11090;SDS011;5599;52.210;21.046;2022-12-07T15:19:08;13.40;;;11.67;;
11090;SDS011;5599;52.210;21.046;2022-12-07T15:21:56;15.57;;;12.43;;
11090;SDS011;5599;52.210;21.046;2022-12-07T15:24:26;14.30;;;12.80;;
11090;SDS011;5599;52.210;21.046;2022-12-07T15:26:57;13.30;;;11.87;;
11090;SDS011;5599;52.210;21.046;2022-12-07T15:29:26;13.43;;;12.03;;
11090;SDS011;5599;52.210;21.046;2022-12-07T15:31:55;13.90;;;12.53;;
11090;SDS011;5599;52.210;21.046;2022-12-07T15:34:25;13.67;;;12.27;;
11090;SDS011;5599;52.210;21.046;2022-12-07T15:37:05;14.33;;;11.53;;
11090;SDS011;5599;52.210;21.046;2022-12-07T15:39:35;13.77;;;12.37;;
11090;SDS011;5599;52.210;21.046;2022-12-07T15:42:06;13.80;;;12.20;;
11090;SDS011;5599;52.210;21.046;2022-12-07T15:44:35;15.23;;;12.50;;
11090;SDS011;5599;52.210;21.046;2022-12-07T15:47:21;15.10;;;12.90;;